createdAt,value
2022-10-10T00:00:14.335Z,6.38
2022-10-10T00:02:41.516Z,5.95
2022-10-10T00:05:08.888Z,6.70
2022-10-10T00:07:36.028Z,6.03
2022-10-10T00:10:03.211Z,5.97
2022-10-10T00:12:30.378Z,5.57
2022-10-10T00:14:57.626Z,5.90
2022-10-10T00:17:24.808Z,5.93
2022-10-10T00:19:51.936Z,6.10
2022-10-10T00:22:19.095Z,5.60
2022-10-10T00:24:46.256Z,6.38
2022-10-10T00:27:13.392Z,5.68
2022-10-10T00:29:40.549Z,5.85
2022-10-10T00:32:07.809Z,5.97
2022-10-10T00:34:34.955Z,5.55
2022-10-10T00:37:02.101Z,6.57
2022-10-10T00:39:29.253Z,5.50
2022-10-10T00:41:56.388Z,5.80
2022-10-10T00:44:23.572Z,5.72
2022-10-10T00:46:50.708Z,6.15
2022-10-10T00:49:23.393Z,5.95
2022-10-10T00:51:52.285Z,5.78
2022-10-10T00:54:21.154Z,5.50
2022-10-10T00:56:53.742Z,5.78
2022-10-10T00:59:21.234Z,5.50
2022-10-10T01:01:48.558Z,5.93
2022-10-10T01:04:30.837Z,5.65
2022-10-10T01:06:58.282Z,5.20
2022-10-10T01:09:25.871Z,5.68
2022-10-10T01:11:55.960Z,4.97
2022-10-10T01:14:26.220Z,5.13
2022-10-10T01:17:02.646Z,5.18
2022-10-10T01:19:29.775Z,5.60
2022-10-10T01:21:56.909Z,5.75
2022-10-10T01:24:43.021Z,6.13
2022-10-10T01:27:30.393Z,5.57
2022-10-10T01:30:02.678Z,5.30
2022-10-10T01:32:29.861Z,4.80
2022-10-10T01:35:01.296Z,5.93
2022-10-10T01:37:38.433Z,5.68
2022-10-10T01:40:10.169Z,5.10
2022-10-10T01:42:47.098Z,4.97
2022-10-10T01:45:14.302Z,5.40
2022-10-10T01:47:41.597Z,5.43
2022-10-10T01:50:11.479Z,5.53
2022-10-10T01:52:41.737Z,5.38
2022-10-10T01:55:21.023Z,5.07
2022-10-10T01:57:48.173Z,5.45
2022-10-10T02:00:16.725Z,5.38
2022-10-10T02:02:43.852Z,5.40
2022-10-10T02:05:17.022Z,5.35
2022-10-10T02:07:47.409Z,5.32
2022-10-10T02:10:17.040Z,5.60
2022-10-10T02:12:44.556Z,6.57
2022-10-10T02:15:14.288Z,5.75
2022-10-10T02:17:42.323Z,5.47
2022-10-10T02:20:11.787Z,6.55
2022-10-10T02:22:42.233Z,5.70
2022-10-10T02:25:09.638Z,5.25
2022-10-10T02:27:45.366Z,6.18
2022-10-10T02:30:12.886Z,5.35
2022-10-10T02:32:45.297Z,5.53
2022-10-10T02:35:20.953Z,6.25
2022-10-10T02:37:48.380Z,5.60
2022-10-10T02:40:17.825Z,5.78
2022-10-10T02:42:46.252Z,6.20
2022-10-10T02:45:13.600Z,5.93
2022-10-10T02:47:40.820Z,6.53
2022-10-10T02:50:08.203Z,5.45
2022-10-10T02:52:35.337Z,6.07
2022-10-10T02:55:02.505Z,6.57
2022-10-10T02:57:29.725Z,6.25
2022-10-10T02:59:57.255Z,6.20
2022-10-10T03:02:24.432Z,6.28
2022-10-10T03:04:51.589Z,5.43
2022-10-10T03:07:18.815Z,5.63
2022-10-10T03:09:45.986Z,6.38
2022-10-10T03:12:13.165Z,5.75
2022-10-10T03:14:40.285Z,5.97
2022-10-10T03:17:07.453Z,5.85
2022-10-10T03:19:34.710Z,6.43
2022-10-10T03:22:01.850Z,6.13
2022-10-10T03:24:29.133Z,6.13
2022-10-10T03:26:56.335Z,6.15
2022-10-10T03:29:23.571Z,5.55
2022-10-10T03:31:50.760Z,5.90
2022-10-10T03:34:18.072Z,6.00
2022-10-10T03:36:45.229Z,5.75
2022-10-10T03:39:12.476Z,5.30
2022-10-10T03:41:39.639Z,5.75
2022-10-10T03:44:06.785Z,5.88
2022-10-10T03:46:33.934Z,6.05
2022-10-10T03:49:01.109Z,5.75
2022-10-10T03:51:28.325Z,5.95
2022-10-10T03:53:55.557Z,6.47
2022-10-10T03:56:22.745Z,5.95
2022-10-10T03:58:49.882Z,6.78
2022-10-10T04:01:17.077Z,6.70
2022-10-10T04:03:47.538Z,6.68
2022-10-10T04:06:17.425Z,6.03
2022-10-10T04:08:44.568Z,5.95
2022-10-10T04:11:11.705Z,5.28
2022-10-10T04:13:38.902Z,7.03
2022-10-10T04:16:06.214Z,6.03
2022-10-10T04:18:33.388Z,5.75
2022-10-10T04:21:04.623Z,6.28
2022-10-10T04:23:31.889Z,5.88
2022-10-10T04:25:59.064Z,5.60
2022-10-10T04:28:26.286Z,5.95
2022-10-10T04:30:56.218Z,6.35
2022-10-10T04:33:23.629Z,6.30
2022-10-10T04:35:50.776Z,5.65
2022-10-10T04:38:19.846Z,5.85
2022-10-10T04:40:48.802Z,5.75
2022-10-10T04:43:15.975Z,5.95
2022-10-10T04:45:43.168Z,6.82
2022-10-10T04:48:10.392Z,6.28
2022-10-10T04:50:37.765Z,6.28
2022-10-10T04:53:04.984Z,6.63
2022-10-10T04:55:32.131Z,6.43
2022-10-10T04:57:59.349Z,5.25
2022-10-10T05:00:26.533Z,6.70
2022-10-10T05:02:54.236Z,6.53
2022-10-10T05:05:21.564Z,6.13
2022-10-10T05:07:51.860Z,6.13
2022-10-10T05:10:22.418Z,5.95
2022-10-10T05:12:49.920Z,6.78
2022-10-10T05:15:17.561Z,6.90
2022-10-10T05:17:44.833Z,6.03
2022-10-10T05:20:12.294Z,5.78
2022-10-10T05:22:39.502Z,6.07
2022-10-10T05:25:06.868Z,6.72
2022-10-10T05:27:34.021Z,5.63
2022-10-10T05:30:01.200Z,6.32
2022-10-10T05:32:28.387Z,6.25
2022-10-10T05:34:55.508Z,7.00
2022-10-10T05:37:22.709Z,6.75
2022-10-10T05:39:54.337Z,6.30
2022-10-10T05:42:21.915Z,6.25
2022-10-10T05:44:49.649Z,6.13
2022-10-10T05:47:17.050Z,7.13
2022-10-10T05:49:44.323Z,7.10
2022-10-10T05:52:11.595Z,7.10
2022-10-10T05:54:38.797Z,6.05
2022-10-10T05:57:06.065Z,6.20
2022-10-10T05:59:33.249Z,7.13
2022-10-10T06:02:00.422Z,6.43
2022-10-10T06:04:27.645Z,7.65
2022-10-10T06:06:54.786Z,6.82
2022-10-10T06:09:21.933Z,6.78
2022-10-10T06:11:49.084Z,7.43
2022-10-10T06:14:16.240Z,7.70
2022-10-10T06:16:45.187Z,7.43
2022-10-10T06:19:14.985Z,7.22
2022-10-10T06:21:42.455Z,7.05
2022-10-10T06:24:10.780Z,7.07
2022-10-10T06:26:38.004Z,8.15
2022-10-10T06:29:05.407Z,8.02
2022-10-10T06:31:32.580Z,8.55
2022-10-10T06:33:59.704Z,8.85
2022-10-10T06:36:26.962Z,7.57
2022-10-10T06:38:54.088Z,7.68
2022-10-10T06:41:21.232Z,7.35
2022-10-10T06:43:49.455Z,9.55
2022-10-10T06:46:16.597Z,7.82
2022-10-10T06:48:43.888Z,8.07
2022-10-10T06:51:15.328Z,7.65
2022-10-10T06:53:43.013Z,8.32
2022-10-10T06:56:17.844Z,8.77
2022-10-10T06:58:45.411Z,8.50
2022-10-10T07:01:12.797Z,7.72
2022-10-10T07:03:40.060Z,8.23
2022-10-10T07:06:09.173Z,7.35
2022-10-10T07:08:36.325Z,7.20
2022-10-10T07:11:03.769Z,6.38
2022-10-10T07:13:31.302Z,7.05
2022-10-10T07:15:58.464Z,6.55
2022-10-10T07:18:25.755Z,6.70
2022-10-10T07:20:56.364Z,7.15
2022-10-10T07:23:23.509Z,7.00
2022-10-10T07:25:50.714Z,6.75
2022-10-10T07:28:17.987Z,6.53
2022-10-10T07:30:46.257Z,5.75
2022-10-10T07:33:14.235Z,6.35
2022-10-10T07:35:41.412Z,6.53
2022-10-10T07:38:08.693Z,6.47
2022-10-10T07:40:35.873Z,5.20
2022-10-10T07:43:03.032Z,6.20
2022-10-10T07:45:30.165Z,5.22
2022-10-10T07:47:57.401Z,4.90
2022-10-10T07:50:26.035Z,5.13
2022-10-10T07:52:53.195Z,4.90
2022-10-10T07:55:20.396Z,5.10
2022-10-10T07:57:53.084Z,5.13
2022-10-10T08:00:20.708Z,5.03
2022-10-10T08:02:47.844Z,5.32
2022-10-10T08:05:15.030Z,5.72
2022-10-10T08:07:42.164Z,5.18
2022-10-10T08:10:09.928Z,5.72
2022-10-10T08:12:37.480Z,5.47
2022-10-10T08:15:05.951Z,5.30
2022-10-10T08:17:33.154Z,4.60
2022-10-10T08:20:00.354Z,5.10
2022-10-10T08:22:27.479Z,5.00
2022-10-10T08:24:54.791Z,4.60
2022-10-10T08:27:22.034Z,4.63
2022-10-10T08:29:49.257Z,4.93
2022-10-10T08:32:16.449Z,4.35
2022-10-10T08:34:43.637Z,4.60
2022-10-10T08:37:10.829Z,4.82
2022-10-10T08:39:38.057Z,4.70
2022-10-10T08:42:05.240Z,5.90
2022-10-10T08:44:41.130Z,5.22
2022-10-10T08:47:13.559Z,4.93
2022-10-10T08:49:47.063Z,4.55
2022-10-10T08:52:26.293Z,5.07
2022-10-10T08:54:58.290Z,4.90
2022-10-10T08:57:29.195Z,5.22
2022-10-10T08:59:59.643Z,4.45
2022-10-10T09:02:43.975Z,4.70
2022-10-10T09:05:19.906Z,4.93
2022-10-10T09:07:47.037Z,4.10
2022-10-10T09:10:20.804Z,4.47
2022-10-10T09:12:52.778Z,4.57
2022-10-10T09:15:19.946Z,4.55
2022-10-10T09:17:59.098Z,4.47
2022-10-10T09:20:26.976Z,4.60
2022-10-10T09:23:03.764Z,5.28
2022-10-10T09:25:39.089Z,4.53
2022-10-10T09:30:36.165Z,4.68
2022-10-10T09:33:08.816Z,4.60
2022-10-10T09:35:38.392Z,4.70
2022-10-10T09:38:11.493Z,5.03
2022-10-10T09:40:40.562Z,4.75
2022-10-10T09:43:20.900Z,4.53
2022-10-10T09:45:58.322Z,4.90
2022-10-10T09:48:28.835Z,4.80
2022-10-10T09:50:56.369Z,5.13
2022-10-10T09:53:23.988Z,4.50
2022-10-10T09:55:53.746Z,4.72
2022-10-10T09:58:38.889Z,5.10
2022-10-10T10:01:19.880Z,4.80
2022-10-10T10:04:23.529Z,5.20
2022-10-10T10:06:53.204Z,5.40
2022-10-10T10:09:21.638Z,5.63
2022-10-10T10:11:49.910Z,5.63
2022-10-10T10:14:25.767Z,6.20
2022-10-10T10:16:53.800Z,4.72
2022-10-10T10:19:40.809Z,4.97
2022-10-10T10:22:26.612Z,5.07
2022-10-10T10:24:54.417Z,5.32
2022-10-10T10:27:23.350Z,5.20
2022-10-10T10:29:54.961Z,5.00
2022-10-10T10:32:28.217Z,4.85
2022-10-10T10:35:03.573Z,5.35
2022-10-10T10:37:33.837Z,5.32
2022-10-10T10:40:07.159Z,5.13
2022-10-10T10:42:42.864Z,5.57
2022-10-10T10:45:16.894Z,6.30
2022-10-10T10:47:51.837Z,6.18
2022-10-10T10:50:45.483Z,5.57
2022-10-10T10:53:18.296Z,5.88
2022-10-10T10:56:03.594Z,6.50
2022-10-10T11:05:22.471Z,7.47
2022-10-10T11:07:21.087Z,5.75
2022-10-10T11:10:02.000Z,6.10
2022-10-10T11:12:38.317Z,6.03
2022-10-10T11:16:01.513Z,5.80
2022-10-10T11:18:37.693Z,6.43
2022-10-10T11:21:19.876Z,6.18
2022-10-10T11:24:04.122Z,6.07
2022-10-10T11:26:34.134Z,6.72
2022-10-10T11:29:14.366Z,6.07
2022-10-10T11:31:45.312Z,6.05
2022-10-10T11:34:20.654Z,6.25
2022-10-10T11:36:48.280Z,6.53
2022-10-10T11:39:19.147Z,6.55
2022-10-10T11:41:55.731Z,5.50
2022-10-10T11:44:29.693Z,6.22
2022-10-10T11:46:59.664Z,5.65
2022-10-10T11:49:45.558Z,5.40
2022-10-10T11:52:34.451Z,5.45
2022-10-10T11:55:18.087Z,6.55
2022-10-10T11:58:04.232Z,6.10
2022-10-10T12:00:35.723Z,7.55
2022-10-10T12:03:02.939Z,7.03
2022-10-10T12:05:30.830Z,6.38
2022-10-10T12:07:57.984Z,6.03
2022-10-10T12:10:28.365Z,6.55
2022-10-10T12:12:57.833Z,6.45
2022-10-10T12:15:28.160Z,6.88
2022-10-10T12:17:55.835Z,6.40
2022-10-10T12:20:30.335Z,6.15
2022-10-10T12:23:08.482Z,6.55
2022-10-10T12:25:42.911Z,6.57
2022-10-10T12:28:16.849Z,6.88
2022-10-10T12:30:57.699Z,6.43
2022-10-10T12:33:34.659Z,7.07
2022-10-10T12:36:19.993Z,6.25
2022-10-10T12:39:11.310Z,6.50
2022-10-10T12:41:57.104Z,6.50
2022-10-10T12:44:44.560Z,6.65
2022-10-10T12:47:14.877Z,8.43
2022-10-10T12:49:58.657Z,7.10
2022-10-10T12:52:27.795Z,6.72
2022-10-10T12:55:04.469Z,7.43
2022-10-10T12:57:34.104Z,7.72
2022-10-10T13:00:06.666Z,7.20
2022-10-10T13:02:34.666Z,7.70
2022-10-10T13:05:03.041Z,7.53
2022-10-10T13:07:30.299Z,6.82
2022-10-10T13:10:06.217Z,7.65
2022-10-10T13:12:34.164Z,8.07
2022-10-10T13:15:01.298Z,7.10
2022-10-10T13:17:33.017Z,7.28
2022-10-10T13:20:01.270Z,6.57
2022-10-10T13:22:29.766Z,7.95
2022-10-10T13:24:57.246Z,7.28
2022-10-10T13:27:29.323Z,7.22
2022-10-10T13:29:56.688Z,8.00
2022-10-10T13:32:28.180Z,8.13
2022-10-10T13:34:58.207Z,8.35
2022-10-10T13:37:26.162Z,8.13
2022-10-10T13:39:54.114Z,7.82
2022-10-10T13:42:24.449Z,8.43
2022-10-10T13:44:52.990Z,8.43
2022-10-10T13:47:38.763Z,8.30
2022-10-10T13:50:18.865Z,9.75
2022-10-10T13:52:46.022Z,9.20
2022-10-10T13:55:17.165Z,9.70
2022-10-10T13:57:44.396Z,8.65
2022-10-10T14:00:19.332Z,9.02
2022-10-10T14:02:46.796Z,9.13
2022-10-10T14:05:26.144Z,9.45
2022-10-10T14:07:53.624Z,11.45
2022-10-10T14:10:26.582Z,10.52
2022-10-10T14:12:57.995Z,10.93
2022-10-10T14:15:34.415Z,10.40
2022-10-10T14:18:01.709Z,10.30
2022-10-10T14:20:28.849Z,11.05
2022-10-10T14:22:56.036Z,10.40
2022-10-10T14:25:23.217Z,11.02
2022-10-10T14:27:50.361Z,11.63
2022-10-10T14:30:17.512Z,11.88
2022-10-10T14:32:44.685Z,11.93
2022-10-10T14:35:13.377Z,12.48
2022-10-10T14:37:40.535Z,13.32
2022-10-10T14:40:21.195Z,11.30
2022-10-10T14:42:48.876Z,13.50
2022-10-10T14:45:17.558Z,12.85
2022-10-10T14:47:44.726Z,12.50
2022-10-10T14:50:23.385Z,13.13
2022-10-10T14:52:50.710Z,12.93
2022-10-10T14:55:17.986Z,12.43
2022-10-10T14:57:45.129Z,13.40
2022-10-10T15:00:14.564Z,13.63
2022-10-10T15:02:45.440Z,7.25
2022-10-10T15:05:13.581Z,3.28
2022-10-10T15:07:40.879Z,3.20
2022-10-10T15:10:32.561Z,3.28
2022-10-10T15:12:56.001Z,2.00
2022-10-10T15:15:23.140Z,1.95
2022-10-10T15:17:50.419Z,1.92
2022-10-10T15:20:17.644Z,1.92
2022-10-10T15:22:46.096Z,2.67
2022-10-10T15:25:13.437Z,2.60
2022-10-10T15:27:40.649Z,2.80
2022-10-10T15:30:08.214Z,2.05
2022-10-10T15:32:38.057Z,3.50
2022-10-10T15:35:05.457Z,2.10
2022-10-10T15:37:32.608Z,2.72
2022-10-10T15:39:59.852Z,2.00
2022-10-10T15:42:27.039Z,2.60
2022-10-10T15:44:54.217Z,1.60
2022-10-10T15:47:21.493Z,2.42
2022-10-10T15:49:48.697Z,2.55
2022-10-10T15:52:15.853Z,2.85
2022-10-10T15:54:43.371Z,2.42
2022-10-10T15:57:11.682Z,2.33
2022-10-10T15:59:43.413Z,2.00
2022-10-10T16:02:11.893Z,3.22
2022-10-10T16:04:39.165Z,2.80
2022-10-10T16:07:24.641Z,2.72
2022-10-10T16:09:54.004Z,3.00
2022-10-10T16:12:21.193Z,2.50
2022-10-10T16:14:48.414Z,3.15
2022-10-10T16:17:19.458Z,2.70
2022-10-10T16:19:49.544Z,2.70
2022-10-10T16:22:16.774Z,2.58
2022-10-10T16:24:53.961Z,2.63
2022-10-10T16:27:32.176Z,2.80
2022-10-10T16:29:59.439Z,3.42
2022-10-10T16:32:26.557Z,3.17
2022-10-10T16:34:53.673Z,2.33
2022-10-10T16:37:20.826Z,2.70
2022-10-10T16:39:48.015Z,3.30
2022-10-10T16:42:15.153Z,2.70
2022-10-10T16:44:42.961Z,2.60
2022-10-10T16:47:10.175Z,3.25
2022-10-10T16:49:37.353Z,3.60
2022-10-10T16:52:04.748Z,2.97
2022-10-10T16:54:31.905Z,3.03
2022-10-10T16:56:59.030Z,3.00
2022-10-10T16:59:26.218Z,2.95
2022-10-10T17:01:53.377Z,2.63
2022-10-10T17:04:20.556Z,3.20
2022-10-10T17:06:47.681Z,3.53
2022-10-10T17:09:17.027Z,3.05
2022-10-10T17:11:49.209Z,2.67
2022-10-10T17:14:18.405Z,4.43
2022-10-10T17:17:10.519Z,3.63
2022-10-10T17:19:33.011Z,3.17
2022-10-10T17:22:00.212Z,2.72
2022-10-10T17:24:27.345Z,2.95
2022-10-10T17:26:54.465Z,2.90
2022-10-10T17:29:23.622Z,3.70
2022-10-10T17:31:50.833Z,3.60
2022-10-10T17:34:18.019Z,2.92
2022-10-10T17:36:45.139Z,3.05
2022-10-10T17:39:12.264Z,3.15
2022-10-10T17:41:39.532Z,2.90
2022-10-10T17:44:10.568Z,2.45
2022-10-10T17:46:38.561Z,3.53
2022-10-10T17:49:06.767Z,2.97
2022-10-10T17:51:34.723Z,3.50
2022-10-10T17:54:02.152Z,2.78
2022-10-10T17:56:29.529Z,3.42
2022-10-10T17:58:56.995Z,2.80
2022-10-10T18:01:24.234Z,3.17
2022-10-10T18:03:51.483Z,3.60
2022-10-10T18:06:23.380Z,2.92
2022-10-10T18:08:51.552Z,2.35
2022-10-10T18:11:20.382Z,2.58
2022-10-10T18:13:47.847Z,3.65
2022-10-10T18:16:19.085Z,3.13
2022-10-10T18:18:50.769Z,2.90
2022-10-10T18:21:19.576Z,3.35
2022-10-10T18:23:46.812Z,4.55
2022-10-10T18:26:15.511Z,3.72
2022-10-10T18:28:43.284Z,4.28
2022-10-10T18:31:15.370Z,3.22
2022-10-10T18:33:44.792Z,3.13
2022-10-10T18:36:12.838Z,3.30
2022-10-10T18:38:40.061Z,3.85
2022-10-10T18:41:11.519Z,2.85
2022-10-10T18:43:39.781Z,3.42
2022-10-10T18:46:08.317Z,3.13
2022-10-10T18:48:36.170Z,2.88
2022-10-10T18:51:07.856Z,3.05
2022-10-10T18:53:39.020Z,3.42
2022-10-10T18:56:06.593Z,3.22
2022-10-10T18:58:35.411Z,2.55
2022-10-10T19:01:03.918Z,3.28
2022-10-10T19:03:31.489Z,3.80
2022-10-10T19:05:58.784Z,3.72
2022-10-10T19:08:25.972Z,3.22
2022-10-10T19:10:53.174Z,3.75
2022-10-10T19:13:20.698Z,3.55
2022-10-10T19:15:50.188Z,4.15
2022-10-10T19:18:17.347Z,3.25
2022-10-10T19:20:44.606Z,3.83
2022-10-10T19:23:13.314Z,3.42
2022-10-10T19:25:41.057Z,4.43
2022-10-10T19:28:08.330Z,3.10
2022-10-10T19:30:45.033Z,3.85
2022-10-10T19:33:12.749Z,3.25
2022-10-10T19:35:40.726Z,4.10
2022-10-10T19:38:08.893Z,4.03
2022-10-10T19:40:36.225Z,3.47
2022-10-10T19:43:03.588Z,3.67
2022-10-10T19:45:30.768Z,4.05
2022-10-10T19:47:57.940Z,3.53
2022-10-10T19:50:25.092Z,4.28
2022-10-10T19:52:52.217Z,5.25
2022-10-10T19:55:19.972Z,3.85
2022-10-10T19:57:47.214Z,4.40
2022-10-10T20:00:14.772Z,3.65
2022-10-10T20:02:43.924Z,4.50
2022-10-10T20:05:11.160Z,3.53
2022-10-10T20:07:38.349Z,4.05
2022-10-10T20:10:05.649Z,3.75
2022-10-10T20:12:32.965Z,3.45
2022-10-10T20:15:00.277Z,2.78
2022-10-10T20:17:28.253Z,3.50
2022-10-10T20:19:55.448Z,3.67
2022-10-10T20:22:22.592Z,4.07
2022-10-10T20:24:49.731Z,3.85
2022-10-10T20:27:16.892Z,3.15
2022-10-10T20:29:44.097Z,3.85
2022-10-10T20:32:11.284Z,4.47
2022-10-10T20:34:38.436Z,3.10
2022-10-10T20:37:05.631Z,3.90
2022-10-10T20:39:32.759Z,3.88
2022-10-10T20:41:59.885Z,4.03
2022-10-10T20:44:27.113Z,3.78
2022-10-10T20:46:54.262Z,3.45
2022-10-10T20:49:22.056Z,3.92
2022-10-10T20:51:51.677Z,4.13
2022-10-10T20:54:19.955Z,4.10
2022-10-10T20:56:49.609Z,3.15
2022-10-10T20:59:17.496Z,3.15
2022-10-10T21:01:47.555Z,3.90
2022-10-10T21:04:14.978Z,3.05
2022-10-10T21:06:45.608Z,3.28
2022-10-10T21:09:13.935Z,3.55
2022-10-10T21:11:41.371Z,3.63
2022-10-10T21:14:08.872Z,3.33
2022-10-10T21:16:37.760Z,3.38
2022-10-10T21:19:06.331Z,3.42
2022-10-10T21:21:35.176Z,3.45
2022-10-10T21:24:03.756Z,4.00
2022-10-10T21:26:31.469Z,4.13
2022-10-10T21:29:00.762Z,3.15
2022-10-10T21:31:29.644Z,3.30
2022-10-10T21:33:56.915Z,3.03
2022-10-10T21:36:25.861Z,3.70
2022-10-10T21:38:53.669Z,2.85
2022-10-10T21:41:21.584Z,3.38
2022-10-10T21:43:51.640Z,3.08
2022-10-10T21:46:20.193Z,3.10
2022-10-10T21:48:47.350Z,3.85
2022-10-10T21:51:15.991Z,3.97
2022-10-10T21:53:43.990Z,3.25
2022-10-10T21:56:11.718Z,3.13
2022-10-10T21:58:40.545Z,3.58
2022-10-10T22:01:08.846Z,4.20
2022-10-10T22:03:36.129Z,3.78
2022-10-10T22:06:08.069Z,4.18
2022-10-10T22:08:35.733Z,3.50
2022-10-10T22:11:03.809Z,2.78
2022-10-10T22:13:31.506Z,3.05
2022-10-10T22:15:58.795Z,4.10
2022-10-10T22:18:26.103Z,3.10
2022-10-10T22:20:53.293Z,3.40
2022-10-10T22:23:20.659Z,3.72
2022-10-10T22:25:49.489Z,3.20
2022-10-10T22:28:17.023Z,3.22
2022-10-10T22:30:44.335Z,3.65
2022-10-10T22:33:11.768Z,3.53
2022-10-10T22:35:39.124Z,3.25
2022-10-10T22:38:06.880Z,3.10
2022-10-10T22:40:34.137Z,3.05
2022-10-10T22:43:01.430Z,3.50
2022-10-10T22:45:29.356Z,3.08
2022-10-10T22:47:56.618Z,3.45
2022-10-10T22:50:23.847Z,3.97
2022-10-10T22:52:50.971Z,3.38
2022-10-10T22:55:18.846Z,4.30
2022-10-10T22:57:46.362Z,3.67
2022-10-10T23:00:14.078Z,3.47
2022-10-10T23:02:41.324Z,3.22
2022-10-10T23:05:08.880Z,3.88
2022-10-10T23:07:36.394Z,4.10
2022-10-10T23:10:03.930Z,3.35
2022-10-10T23:12:31.129Z,3.83
2022-10-10T23:14:58.370Z,4.18
2022-10-10T23:17:25.496Z,3.05
2022-10-10T23:19:53.092Z,2.58
2022-10-10T23:22:20.324Z,4.63
2022-10-10T23:24:47.565Z,3.50
2022-10-10T23:27:14.777Z,3.35
2022-10-10T23:29:42.010Z,3.47
2022-10-10T23:32:09.189Z,3.42
2022-10-10T23:34:36.443Z,4.18
2022-10-10T23:37:03.682Z,3.47
2022-10-10T23:39:30.961Z,3.22
2022-10-10T23:41:58.098Z,3.58
2022-10-10T23:44:25.322Z,3.97
2022-10-10T23:46:52.513Z,3.30
2022-10-10T23:49:19.643Z,2.80
2022-10-10T23:51:47.045Z,4.15
2022-10-10T23:54:14.174Z,4.15
2022-10-10T23:56:41.372Z,3.70
2022-10-10T23:59:08.680Z,3.10
